Time;durP1;ratioP1;P1;durP2;ratioP2;P2;SDS_P1;SDS_P2;PMS_P1;PMS_P2;Temp;Humidity;BMP_temperature;BMP_pressure;BME280_temperature;BME280_humidity;BME280_pressure;Samples;Min_cycle;Max_cycle;Signal;HPM_P1;HPM_P2
2023/10/08 00:02:27;;;;;;;5.20;2.60;;;19.40;93.20;;;;;;5012305;28;20026;-65
2023/10/08 00:04:55;;;;;;;7.03;3.00;;;19.40;93.20;;;;;;4997423;28;20038;-66
2023/10/08 00:07:21;;;;;;;7.32;3.30;;;19.30;93.30;;;;;;4997312;28;20030;-66
2023/10/08 00:09:51;;;;;;;6.55;3.15;;;19.40;93.30;;;;;;4997388;28;20077;-66
2023/10/08 00:12:17;;;;;;;7.07;2.95;;;19.30;93.40;;;;;;4997228;28;20456;-66
2023/10/08 00:14:44;;;;;;;7.25;3.10;;;19.20;93.40;;;;;;4997213;28;20042;-67
2023/10/08 00:17:11;;;;;;;6.40;3.15;;;19.20;93.50;;;;;;4996810;28;20018;-66
2023/10/08 00:19:39;;;;;;;5.70;3.10;;;19.20;93.60;;;;;;4997338;28;20105;-66
2023/10/08 00:22:09;;;;;;;7.72;2.90;;;19.20;93.60;;;;;;4997197;28;20381;-66
2023/10/08 00:24:35;;;;;;;7.57;2.75;;;19.20;93.60;;;;;;4996959;28;20038;-66
2023/10/08 00:27:02;;;;;;;7.50;3.42;;;19.20;93.70;;;;;;4996967;28;20030;-68
2023/10/08 00:29:31;;;;;;;6.88;2.75;;;19.20;93.80;;;;;;4997020;28;20057;-66
2023/10/08 00:31:57;;;;;;;5.70;2.92;;;19.10;93.80;;;;;;4995334;28;20074;-66
2023/10/08 00:34:24;;;;;;;6.65;3.20;;;19.10;93.90;;;;;;4997087;28;20152;-66
2023/10/08 00:36:50;;;;;;;8.13;3.13;;;19.10;94.00;;;;;;4996735;28;20037;-68
2023/10/08 00:39:22;;;;;;;5.15;2.70;;;19.10;94.00;;;;;;4996938;28;20014;-65
2023/10/08 00:41:49;;;;;;;10.23;3.65;;;19.10;94.00;;;;;;4996727;28;20108;-66
2023/10/08 00:44:30;;;;;;;7.25;3.38;;;19.00;94.20;;;;;;4996255;28;20149;-66
2023/10/08 00:47:00;;;;;;;7.80;3.72;;;19.00;94.30;;;;;;4996618;28;20060;-66
2023/10/08 00:52:30;;;;;;;6.53;3.42;;;19.00;94.30;;;;;;4984533;28;20150;-66
2023/10/08 00:57:29;;;;;;;6.95;3.40;;;19.00;94.40;;;;;;4995018;28;20390;-66
2023/10/08 00:59:59;;;;;;;4.93;3.10;;;19.00;94.50;;;;;;4996162;28;20037;-66
2023/10/08 01:02:42;;;;;;;7.35;3.35;;;18.90;94.60;;;;;;4996511;28;20514;-65
2023/10/08 01:05:10;;;;;;;8.52;3.50;;;18.90;94.50;;;;;;4996549;28;20033;-65
2023/10/08 01:07:35;;;;;;;6.40;3.55;;;18.90;94.60;;;;;;4994924;28;20602;-66
2023/10/08 01:10:10;;;;;;;7.55;2.88;;;18.90;94.70;;;;;;4996476;28;20054;-65
2023/10/08 01:12:44;;;;;;;5.75;3.20;;;18.80;94.80;;;;;;4996293;28;20030;-65
2023/10/08 01:15:19;;;;;;;8.63;3.58;;;18.90;94.80;;;;;;4996402;28;20034;-66
2023/10/08 01:18:00;;;;;;;6.85;3.33;;;18.80;94.80;;;;;;4996066;28;20444;-65
2023/10/08 01:20:33;;;;;;;6.63;3.33;;;18.80;94.90;;;;;;4996317;28;20033;-66
2023/10/08 01:23:16;;;;;;;8.90;3.47;;;18.90;95.00;;;;;;4995865;28;20026;-65
2023/10/08 01:25:50;;;;;;;7.88;3.15;;;18.90;95.00;;;;;;4995916;28;20030;-65
2023/10/08 01:28:25;;;;;;;8.48;3.72;;;18.80;95.00;;;;;;4995604;28;20058;-65
2023/10/08 01:30:53;;;;;;;7.43;3.70;;;18.80;95.20;;;;;;4996072;28;20014;-65
2023/10/08 01:33:20;;;;;;;7.90;4.10;;;18.80;95.20;;;;;;4995894;28;20026;-65
2023/10/08 01:35:48;;;;;;;5.65;3.97;;;18.80;95.20;;;;;;4995938;28;20093;-65
2023/10/08 01:38:14;;;;;;;10.48;4.38;;;18.80;95.20;;;;;;4995748;28;20069;-66
2023/10/08 01:40:43;;;;;;;8.80;3.50;;;18.80;95.30;;;;;;4994792;28;20022;-66
2023/10/08 01:43:10;;;;;;;8.82;3.60;;;18.70;95.50;;;;;;4995331;28;20108;-65
2023/10/08 01:45:40;;;;;;;9.57;3.75;;;18.70;95.60;;;;;;4995591;28;20050;-66
2023/10/08 01:48:09;;;;;;;10.13;3.80;;;18.70;95.60;;;;;;4995538;28;20023;-65
2023/10/08 01:50:37;;;;;;;8.23;3.55;;;18.70;95.60;;;;;;4995642;28;20022;-65
2023/10/08 01:53:06;;;;;;;6.30;3.30;;;18.70;95.70;;;;;;4998829;28;20434;-65
2023/10/08 01:55:45;;;;;;;13.15;3.78;;;18.70;95.80;;;;;;5013996;28;20537;-65
2023/10/08 01:58:13;;;;;;;9.52;4.05;;;18.70;95.80;;;;;;5011813;28;20022;-66
2023/10/08 02:00:45;;;;;;;6.13;3.85;;;18.70;96.00;;;;;;5015014;28;20049;-65
2023/10/08 02:03:13;;;;;;;5.38;3.35;;;18.70;96.00;;;;;;5014794;28;20022;-65
2023/10/08 02:05:41;;;;;;;12.75;3.83;;;18.70;96.00;;;;;;5013108;28;20081;-66
2023/10/08 02:08:08;;;;;;;8.88;4.05;;;18.70;96.10;;;;;;5014367;28;20022;-67
2023/10/08 02:10:35;;;;;;;8.68;4.00;;;18.70;96.20;;;;;;5014886;28;20380;-66
2023/10/08 02:13:01;;;;;;;6.88;3.63;;;18.70;96.20;;;;;;5014497;28;20029;-66
2023/10/08 02:15:27;;;;;;;10.57;4.43;;;18.70;96.20;;;;;;5014869;28;20030;-66
2023/10/08 02:17:54;;;;;;;7.50;3.80;;;18.60;96.30;;;;;;5014469;28;20135;-67
2023/10/08 02:20:21;;;;;;;6.82;4.07;;;18.60;96.50;;;;;;5014427;28;20105;-66
2023/10/08 02:22:49;;;;;;;6.43;3.75;;;18.60;96.50;;;;;;5014661;28;20044;-66
2023/10/08 02:25:15;;;;;;;8.52;4.22;;;18.60;96.60;;;;;;5014355;28;20032;-66
2023/10/08 02:27:41;;;;;;;7.50;3.88;;;18.60;96.60;;;;;;5014202;28;20037;-66
2023/10/08 02:30:09;;;;;;;10.45;3.60;;;18.60;96.70;;;;;;5014247;28;20084;-66
2023/10/08 02:32:36;;;;;;;12.85;4.50;;;18.50;96.90;;;;;;5013106;28;20028;-66
2023/10/08 02:35:03;;;;;;;9.35;4.00;;;18.40;97.00;;;;;;5014240;28;20414;-65
2023/10/08 02:37:28;;;;;;;6.72;4.13;;;18.40;97.00;;;;;;5014167;28;20028;-66
2023/10/08 02:39:54;;;;;;;6.80;3.72;;;18.50;97.10;;;;;;5014194;28;20021;-66
2023/10/08 02:42:21;;;;;;;8.77;4.32;;;18.50;97.20;;;;;;5014013;28;20475;-65
2023/10/08 02:44:47;;;;;;;8.98;4.00;;;18.50;97.20;;;;;;5013895;28;20038;-66
2023/10/08 02:47:20;;;;;;;7.72;3.95;;;18.50;97.20;;;;;;5014047;28;20421;-66
2023/10/08 02:49:48;;;;;;;7.50;3.63;;;18.50;97.30;;;;;;5014149;28;20029;-65
2023/10/08 02:52:15;;;;;;;8.38;3.97;;;18.40;97.30;;;;;;5012721;28;20026;-65
2023/10/08 02:54:41;;;;;;;8.10;4.28;;;18.50;97.40;;;;;;5013821;28;20026;-65
2023/10/08 02:57:14;;;;;;;8.55;3.88;;;18.40;97.50;;;;;;5013919;28;20440;-65
2023/10/08 02:59:40;;;;;;;13.48;4.50;;;18.40;97.60;;;;;;5013738;28;20033;-66
2023/10/08 03:02:18;;;;;;;9.85;4.82;;;18.40;97.70;;;;;;5013911;28;20072;-65
2023/10/08 03:04:47;;;;;;;9.07;4.25;;;18.40;97.70;;;;;;5013910;28;20030;-65
2023/10/08 03:07:26;;;;;;;8.18;4.22;;;18.40;97.80;;;;;;5013642;28;20026;-66
2023/10/08 03:10:03;;;;;;;11.05;4.07;;;18.40;97.90;;;;;;5013443;28;20563;-65
2023/10/08 03:12:32;;;;;;;8.75;4.55;;;18.40;97.90;;;;;;5013902;28;20054;-65
2023/10/08 03:15:14;;;;;;;10.65;4.65;;;18.40;97.90;;;;;;5013729;28;20459;-65
2023/10/08 03:17:48;;;;;;;6.70;3.65;;;18.40;97.90;;;;;;5013810;28;20030;-65
2023/10/08 03:23:33;;;;;;;7.07;4.30;;;18.40;98.10;;;;;;5008655;28;20468;-65
2023/10/08 03:26:10;;;;;;;9.30;4.32;;;18.30;98.20;;;;;;5013254;28;20105;-65
2023/10/08 03:28:37;;;;;;;9.90;4.10;;;18.30;98.30;;;;;;5013373;28;20034;-65
2023/10/08 03:31:04;;;;;;;7.93;4.35;;;18.20;98.40;;;;;;5013623;28;20049;-65
2023/10/08 03:33:37;;;;;;;8.73;4.35;;;18.30;98.40;;;;;;5013779;28;20030;-65
2023/10/08 03:36:34;;;;;;;10.00;4.60;;;18.30;98.40;;;;;;5013408;28;20033;-65
2023/10/08 03:38:56;;;;;;;10.85;5.15;;;18.30;98.40;;;;;;5013067;28;20038;-65
2023/10/08 03:41:32;;;;;;;9.48;4.78;;;18.20;98.50;;;;;;5013378;28;20065;-66
2023/10/08 03:44:01;;;;;;;8.68;4.95;;;18.30;98.60;;;;;;5013550;28;20042;-65
2023/10/08 03:46:31;;;;;;;10.05;4.65;;;18.20;98.60;;;;;;5013146;28;20084;-66
2023/10/08 03:49:06;;;;;;;10.15;4.78;;;18.20;98.70;;;;;;5013383;28;20030;-65
2023/10/08 03:51:39;;;;;;;11.73;5.30;;;18.20;98.80;;;;;;5013324;28;20021;-65
2023/10/08 03:56:45;;;;;;;11.00;5.25;;;18.20;99.20;;;;;;5013358;28;20038;-65
2023/10/08 03:59:20;;;;;;;11.95;5.32;;;18.20;98.90;;;;;;5013223;28;20029;-65
2023/10/08 04:01:49;;;;;;;9.00;4.70;;;18.20;99.00;;;;;;5013216;28;20083;-65
2023/10/08 04:04:15;;;;;;;8.57;4.65;;;18.20;98.90;;;;;;5012910;28;20109;-65
2023/10/08 04:06:49;;;;;;;8.85;5.25;;;18.20;99.00;;;;;;5013123;28;20101;-65
2023/10/08 04:09:24;;;;;;;8.68;4.80;;;18.10;99.20;;;;;;5013035;28;20026;-64
2023/10/08 04:11:51;;;;;;;7.60;4.05;;;18.10;99.20;;;;;;5013381;28;20026;-64
2023/10/08 04:14:24;;;;;;;6.55;4.40;;;18.10;99.20;;;;;;5013239;28;20467;-65
2023/10/08 04:16:52;;;;;;;9.20;4.90;;;18.10;99.30;;;;;;5011957;28;20561;-65
2023/10/08 04:19:26;;;;;;;11.07;4.75;;;18.10;99.30;;;;;;5013039;28;20045;-65
2023/10/08 04:21:55;;;;;;;9.30;4.95;;;18.10;99.30;;;;;;5012654;28;20029;-65
2023/10/08 04:24:34;;;;;;;7.45;4.82;;;18.00;99.40;;;;;;5013007;28;20036;-66
2023/10/08 04:27:05;;;;;;;9.20;5.25;;;18.00;99.40;;;;;;5012744;28;20022;-65
2023/10/08 04:29:36;;;;;;;13.45;5.07;;;18.00;99.50;;;;;;5012921;28;20438;-66
2023/10/08 04:32:07;;;;;;;9.23;5.25;;;18.00;99.60;;;;;;5014323;28;20074;-67
2023/10/08 04:34:33;;;;;;;8.35;4.85;;;17.90;99.70;;;;;;5016648;28;20018;-66
2023/10/08 04:37:03;;;;;;;10.02;5.47;;;18.00;99.70;;;;;;5016226;28;20028;-65
2023/10/08 04:39:32;;;;;;;10.57;5.40;;;18.00;99.70;;;;;;5016486;28;20029;-65
2023/10/08 04:42:12;;;;;;;8.75;4.85;;;18.00;99.70;;;;;;5015092;28;20014;-65
2023/10/08 04:44:39;;;;;;;8.88;5.28;;;17.90;99.80;;;;;;5016543;28;20057;-65
2023/10/08 04:47:06;;;;;;;9.75;4.82;;;17.90;99.90;;;;;;5016327;28;20109;-66
2023/10/08 04:49:34;;;;;;;7.63;4.90;;;17.90;99.80;;;;;;5016277;28;20026;-66
2023/10/08 04:52:18;;;;;;;8.35;5.18;;;17.90;99.90;;;;;;5015890;28;20093;-66
2023/10/08 04:54:51;;;;;;;12.38;5.43;;;17.90;99.90;;;;;;5016279;28;20029;-65
2023/10/08 04:57:21;;;;;;;9.88;5.20;;;17.90;99.90;;;;;;5015849;28;20430;-66
2023/10/08 04:59:50;;;;;;;11.15;5.57;;;17.80;99.90;;;;;;5016301;28;20443;-66
2023/10/08 05:07:20;;;;;;;10.65;5.55;;;17.80;99.90;;;;;;5013547;28;20107;-66
2023/10/08 05:10:10;;;;;;;10.07;5.45;;;17.80;99.90;;;;;;5016064;28;20037;-66
2023/10/08 05:12:50;;;;;;;8.73;5.70;;;17.90;99.90;;;;;;5015821;28;20033;-67
2023/10/08 05:20:44;;;;;;;12.93;6.13;;;17.80;99.90;;;;;;5015591;28;20034;-67
2023/10/08 05:25:58;;;;;;;11.10;5.53;;;17.80;99.90;;;;;;5014631;28;20038;-66
2023/10/08 05:28:25;;;;;;;9.63;6.10;;;17.80;99.90;;;;;;5015401;28;20084;-67
2023/10/08 05:36:28;;;;;;;12.52;6.57;;;17.90;99.90;;;;;;5006813;28;20403;-72
2023/10/08 05:39:01;;;;;;;11.45;5.50;;;18.10;99.90;;;;;;5012826;28;20018;-72
2023/10/08 05:41:28;;;;;;;7.97;4.95;;;18.20;99.90;;;;;;4992494;28;20033;-72
2023/10/08 05:44:39;;;;;;;10.98;5.60;;;18.20;99.90;;;;;;5002612;28;20026;-72
2023/10/08 05:55:15;;;;;;;10.05;5.28;;;18.30;99.90;;;;;;4994596;28;20472;-72
2023/10/08 06:05:22;;;;;;;11.35;5.70;;;18.30;99.90;;;;;;5006774;28;20395;-71
2023/10/08 06:11:17;;;;;;;12.43;6.15;;;18.30;99.90;;;;;;5003692;28;20038;-71
2023/10/08 06:13:16;;;;;;;10.07;5.28;;;18.40;99.90;;;;;;4998431;28;20120;-71
2023/10/08 06:15:51;;;;;;;10.63;6.18;;;18.40;99.90;;;;;;5014050;28;20065;-73
2023/10/08 06:18:18;;;;;;;7.78;5.63;;;18.40;99.90;;;;;;5008318;28;20034;-73
2023/10/08 06:20:48;;;;;;;9.23;5.15;;;18.30;99.90;;;;;;5007934;28;20435;-72
2023/10/08 06:23:18;;;;;;;9.68;5.18;;;18.40;99.90;;;;;;5008005;28;20018;-72
2023/10/08 06:25:44;;;;;;;10.32;5.47;;;18.40;99.90;;;;;;5002693;28;20109;-72
2023/10/08 06:28:19;;;;;;;12.38;5.53;;;18.40;99.90;;;;;;4998942;28;20025;-72
2023/10/08 06:30:49;;;;;;;9.27;5.85;;;18.40;99.90;;;;;;5003628;28;20508;-71
2023/10/08 06:33:16;;;;;;;9.95;5.80;;;18.40;99.90;;;;;;5007516;28;20368;-70
2023/10/08 06:35:44;;;;;;;9.80;5.85;;;18.40;99.90;;;;;;5006716;28;20100;-71
2023/10/08 06:38:10;;;;;;;8.48;6.07;;;18.40;99.90;;;;;;5008949;28;20525;-71
2023/10/08 06:43:11;;;;;;;10.10;5.07;;;18.40;99.90;;;;;;4996247;28;20031;-71
2023/10/08 06:45:39;;;;;;;12.38;5.30;;;18.40;99.90;;;;;;5010286;28;20486;-71
2023/10/08 06:48:06;;;;;;;9.05;5.45;;;18.40;99.90;;;;;;5009057;28;20610;-72
2023/10/08 06:50:35;;;;;;;10.15;5.90;;;18.40;99.90;;;;;;5007072;28;20056;-72
2023/10/08 06:53:07;;;;;;;8.95;5.50;;;18.40;99.90;;;;;;5005164;28;20471;-72
2023/10/08 06:55:36;;;;;;;9.77;5.65;;;18.50;99.90;;;;;;5011627;28;20041;-72
2023/10/08 06:58:07;;;;;;;8.23;5.47;;;18.50;99.90;;;;;;5008930;28;20022;-73
2023/10/08 07:00:40;;;;;;;10.30;5.40;;;18.50;99.90;;;;;;5001604;28;20018;-72
2023/10/08 07:03:15;;;;;;;9.30;5.35;;;18.50;99.90;;;;;;5004139;28;20026;-72
2023/10/08 07:06:02;;;;;;;9.88;5.15;;;18.40;99.90;;;;;;5004531;28;20022;-73
2023/10/08 07:08:31;;;;;;;12.45;6.13;;;18.40;99.90;;;;;;5008532;28;20037;-71
2023/10/08 07:10:58;;;;;;;8.35;5.38;;;18.30;99.90;;;;;;5010999;28;20375;-72
2023/10/08 07:13:24;;;;;;;12.07;5.97;;;18.20;99.90;;;;;;5011763;28;20467;-71
2023/10/08 07:15:53;;;;;;;12.30;6.63;;;18.30;99.90;;;;;;5008470;28;20026;-72
2023/10/08 07:18:24;;;;;;;7.55;5.65;;;18.30;99.90;;;;;;5009810;28;20540;-72
2023/10/08 07:20:53;;;;;;;12.77;6.20;;;18.30;99.90;;;;;;5024193;28;20033;-72
2023/10/08 07:23:25;;;;;;;12.00;6.68;;;18.30;99.90;;;;;;5011333;28;20093;-71
2023/10/08 07:26:23;;;;;;;10.43;6.07;;;18.30;99.90;;;;;;5004815;28;20152;-73
2023/10/08 07:28:47;;;;;;;12.50;6.35;;;18.30;99.90;;;;;;5005163;28;20572;-72
2023/10/08 07:31:17;;;;;;;11.65;5.85;;;18.30;99.90;;;;;;5011991;28;20026;-72
2023/10/08 07:33:48;;;;;;;12.75;6.53;;;18.30;99.90;;;;;;5003255;28;20080;-72
2023/10/08 07:36:14;;;;;;;11.43;6.95;;;18.40;99.90;;;;;;5011401;28;20026;-72
2023/10/08 07:38:42;;;;;;;13.18;5.97;;;18.50;99.90;;;;;;5011537;28;20018;-72
2023/10/08 07:41:14;;;;;;;11.18;6.75;;;18.40;99.90;;;;;;5007510;28;20033;-72
2023/10/08 07:43:43;;;;;;;12.40;6.30;;;18.50;99.90;;;;;;5011847;28;20054;-72
2023/10/08 07:46:10;;;;;;;11.82;6.85;;;18.50;99.90;;;;;;5015047;28;20034;-73
2023/10/08 07:48:42;;;;;;;14.68;6.30;;;18.50;99.90;;;;;;5009815;28;20030;-72
2023/10/08 07:51:08;;;;;;;11.70;6.30;;;18.50;99.90;;;;;;5008897;28;20034;-72
2023/10/08 07:53:41;;;;;;;13.90;6.85;;;18.60;99.90;;;;;;4996346;28;20034;-72
2023/10/08 07:56:08;;;;;;;12.63;6.75;;;18.60;99.90;;;;;;5011532;28;20022;-73
2023/10/08 07:58:37;;;;;;;12.38;7.13;;;18.60;99.90;;;;;;5013135;28;20028;-72
2023/10/08 08:01:09;;;;;;;11.18;6.50;;;18.60;99.90;;;;;;5010097;28;20042;-72
2023/10/08 08:03:39;;;;;;;13.75;7.43;;;18.70;99.90;;;;;;5012793;28;20168;-72
2023/10/08 08:06:09;;;;;;;10.20;6.97;;;18.70;99.90;;;;;;5007818;28;20022;-72
2023/10/08 08:08:37;;;;;;;13.55;7.55;;;18.70;99.90;;;;;;5014782;28;20112;-72
2023/10/08 08:11:12;;;;;;;11.68;7.47;;;18.70;99.90;;;;;;5016462;28;20032;-79
2023/10/08 08:13:42;;;;;;;10.60;5.32;;;18.70;99.90;;;;;;5016268;28;20032;-79
2023/10/08 08:16:17;;;;;;;11.13;6.13;;;18.70;99.90;;;;;;5015516;28;20044;-71
2023/10/08 08:18:48;;;;;;;8.88;5.75;;;18.70;99.90;;;;;;5013139;28;20116;-71
2023/10/08 08:21:15;;;;;;;13.40;6.90;;;18.70;99.90;;;;;;5014970;28;20018;-71
2023/10/08 08:23:47;;;;;;;11.05;6.13;;;18.70;99.90;;;;;;5014129;28;20095;-71
2023/10/08 08:26:26;;;;;;;10.68;6.22;;;18.70;99.90;;;;;;5013192;28;20169;-76
2023/10/08 08:28:56;;;;;;;12.63;6.72;;;18.70;99.90;;;;;;5009715;28;20029;-74
2023/10/08 08:31:26;;;;;;;13.48;7.00;;;18.80;99.90;;;;;;5014780;28;20022;-73
2023/10/08 08:33:53;;;;;;;10.00;6.63;;;18.80;99.90;;;;;;5014093;28;20033;-74
2023/10/08 08:36:20;;;;;;;11.35;6.90;;;18.80;99.90;;;;;;5014286;28;20014;-73
2023/10/08 08:38:47;;;;;;;8.93;6.78;;;18.80;99.90;;;;;;5014867;28;20044;-73
2023/10/08 08:41:17;;;;;;;13.32;7.13;;;18.90;99.90;;;;;;5012416;28;20030;-74
2023/10/08 08:43:47;;;;;;;10.15;5.93;;;18.90;99.90;;;;;;5013461;28;20026;-73
2023/10/08 08:46:13;;;;;;;11.98;6.05;;;18.80;99.90;;;;;;5013787;28;20033;-74
2023/10/08 08:48:44;;;;;;;13.07;6.53;;;18.90;99.90;;;;;;5010361;28;20411;-73
2023/10/08 08:51:11;;;;;;;15.07;6.82;;;18.90;99.90;;;;;;5012465;28;20038;-76
2023/10/08 08:53:37;;;;;;;11.02;6.28;;;18.90;99.90;;;;;;5012426;28;20026;-72
2023/10/08 08:56:09;;;;;;;13.45;7.60;;;18.90;99.90;;;;;;5013460;28;20033;-71
2023/10/08 08:58:35;;;;;;;10.73;5.30;;;18.90;99.90;;;;;;5012802;28;20037;-72
2023/10/08 09:01:03;;;;;;;9.32;5.65;;;19.00;99.90;;;;;;5014222;28;20479;-71
2023/10/08 09:03:32;;;;;;;12.65;6.75;;;18.90;99.90;;;;;;5011780;28;20034;-71
2023/10/08 09:05:59;;;;;;;10.90;6.78;;;18.90;99.90;;;;;;5014554;28;20029;-71
2023/10/08 09:08:35;;;;;;;12.50;7.82;;;18.90;99.90;;;;;;5012870;28;20038;-71
2023/10/08 09:11:02;;;;;;;16.40;7.88;;;19.00;99.90;;;;;;5013454;28;20022;-71
2023/10/08 09:13:28;;;;;;;15.98;8.93;;;19.00;99.90;;;;;;5008696;28;20406;-71
2023/10/08 09:16:13;;;;;;;15.23;7.68;;;19.00;99.90;;;;;;5004176;28;20072;-70
2023/10/08 09:18:42;;;;;;;13.02;7.32;;;19.10;99.90;;;;;;5012275;28;20030;-72
2023/10/08 09:21:13;;;;;;;10.73;6.03;;;19.00;99.90;;;;;;5009529;28;20026;-71
2023/10/08 09:23:47;;;;;;;10.93;5.10;;;19.00;99.90;;;;;;5000890;28;20034;-71
2023/10/08 09:26:14;;;;;;;14.02;5.07;;;19.00;99.90;;;;;;5007424;28;20029;-71
2023/10/08 09:28:46;;;;;;;12.05;5.15;;;19.00;99.90;;;;;;5014793;28;20041;-71
2023/10/08 09:31:12;;;;;;;13.38;5.47;;;19.00;99.90;;;;;;5010019;28;20108;-71
2023/10/08 09:33:39;;;;;;;9.75;5.63;;;19.10;99.90;;;;;;5006985;28;20094;-71
2023/10/08 09:36:05;;;;;;;11.45;5.18;;;19.10;99.90;;;;;;5005609;28;20037;-70
2023/10/08 09:38:33;;;;;;;11.70;6.13;;;19.10;99.90;;;;;;5004438;28;20026;-71
2023/10/08 09:41:03;;;;;;;12.15;6.97;;;19.10;99.90;;;;;;5006147;28;20058;-71
2023/10/08 09:43:29;;;;;;;11.45;6.35;;;19.10;99.90;;;;;;5007518;28;20031;-70
2023/10/08 09:46:08;;;;;;;14.73;6.00;;;19.20;99.90;;;;;;5001400;28;20387;-70
2023/10/08 09:48:37;;;;;;;10.60;4.70;;;19.20;99.90;;;;;;5002427;28;20070;-71
2023/10/08 09:51:06;;;;;;;11.95;5.82;;;19.20;99.90;;;;;;5006637;28;20108;-71
2023/10/08 09:53:47;;;;;;;10.00;4.88;;;19.20;99.90;;;;;;4996264;28;20018;-71
2023/10/08 09:56:18;;;;;;;15.20;5.80;;;19.20;99.90;;;;;;5010308;28;20061;-71
2023/10/08 09:58:45;;;;;;;10.57;4.78;;;19.20;99.90;;;;;;5010761;28;20080;-74
2023/10/08 10:01:11;;;;;;;16.13;4.80;;;19.30;99.90;;;;;;5012877;28;20075;-70
2023/10/08 10:03:37;;;;;;;10.32;4.70;;;19.30;99.90;;;;;;5004958;28;20093;-71
2023/10/08 10:06:09;;;;;;;13.60;5.65;;;19.30;99.90;;;;;;5010638;28;21631;-70
2023/10/08 10:08:35;;;;;;;12.70;5.95;;;19.40;99.90;;;;;;5008515;28;20060;-70
2023/10/08 10:11:01;;;;;;;13.02;5.43;;;19.30;99.90;;;;;;5004010;28;20458;-70
2023/10/08 10:13:29;;;;;;;14.55;4.93;;;19.30;99.90;;;;;;5012328;28;20034;-70
2023/10/08 10:15:56;;;;;;;10.40;5.70;;;19.40;99.90;;;;;;5007621;28;20020;-70
2023/10/08 10:18:31;;;;;;;13.93;5.28;;;19.40;99.90;;;;;;5003844;28;20038;-70
2023/10/08 10:21:20;;;;;;;14.73;5.55;;;19.40;99.90;;;;;;5006369;28;20048;-70
2023/10/08 10:23:50;;;;;;;14.73;5.75;;;19.40;99.90;;;;;;5008619;28;20045;-70
2023/10/08 10:26:28;;;;;;;15.20;5.47;;;19.40;99.90;;;;;;5009361;28;20386;-70
2023/10/08 10:29:14;;;;;;;27.45;6.60;;;19.50;99.90;;;;;;5008251;28;20037;-71
2023/10/08 10:31:46;;;;;;;17.00;7.28;;;19.50;99.90;;;;;;5008895;28;20038;-70
2023/10/08 10:34:14;;;;;;;16.88;8.32;;;19.50;99.90;;;;;;5008042;28;20022;-71
2023/10/08 10:36:41;;;;;;;13.93;7.10;;;19.50;99.90;;;;;;5008837;28;20041;-72
2023/10/08 10:39:15;;;;;;;20.45;7.63;;;19.50;99.90;;;;;;5012160;28;20026;-71
2023/10/08 10:41:51;;;;;;;16.85;7.28;;;19.60;99.90;;;;;;5000106;28;20022;-72
2023/10/08 10:44:17;;;;;;;15.48;7.75;;;19.60;99.90;;;;;;5010624;28;20061;-71
2023/10/08 10:46:50;;;;;;;14.48;7.90;;;19.60;99.90;;;;;;5009463;28;20084;-71
2023/10/08 10:49:24;;;;;;;17.30;6.80;;;19.60;99.90;;;;;;5012637;28;20026;-71
2023/10/08 10:51:57;;;;;;;15.00;6.35;;;19.60;99.90;;;;;;5013707;28;20022;-71
2023/10/08 10:54:24;;;;;;;14.18;6.38;;;19.60;99.90;;;;;;5011056;28;20497;-71
2023/10/08 10:57:03;;;;;;;16.33;8.93;;;19.60;99.90;;;;;;5014074;28;20048;-70
2023/10/08 10:59:37;;;;;;;13.93;7.80;;;19.70;99.90;;;;;;5013552;28;20030;-71
2023/10/08 11:02:08;;;;;;;17.92;8.20;;;19.70;99.90;;;;;;5010969;28;20025;-71
2023/10/08 11:04:47;;;;;;;18.65;6.57;;;19.70;99.90;;;;;;5012204;28;20096;-71
2023/10/08 11:07:19;;;;;;;14.25;7.47;;;19.70;99.90;;;;;;5013089;28;20030;-71
2023/10/08 11:09:46;;;;;;;15.20;6.47;;;19.80;99.90;;;;;;5002127;28;20026;-71
2023/10/08 11:12:18;;;;;;;16.60;6.05;;;19.80;99.90;;;;;;5010557;28;20018;-70
2023/10/08 11:14:47;;;;;;;11.25;6.03;;;19.80;99.90;;;;;;5011306;28;20018;-71
2023/10/08 11:17:22;;;;;;;16.00;6.68;;;19.80;99.90;;;;;;5007833;28;20121;-71
2023/10/08 11:19:48;;;;;;;11.95;6.80;;;19.90;99.90;;;;;;5012232;28;20038;-71
2023/10/08 11:22:18;;;;;;;12.48;7.40;;;19.90;99.90;;;;;;5011838;28;20096;-71
2023/10/08 11:24:47;;;;;;;10.55;6.00;;;19.90;99.90;;;;;;5011459;28;20467;-72
2023/10/08 11:27:16;;;;;;;13.77;5.82;;;19.90;99.90;;;;;;5010465;28;20018;-71
2023/10/08 11:29:47;;;;;;;13.02;5.93;;;19.90;99.90;;;;;;5004918;28;20033;-71
2023/10/08 11:32:17;;;;;;;13.07;6.00;;;19.90;99.90;;;;;;5008978;28;20077;-72
2023/10/08 11:34:49;;;;;;;15.27;6.20;;;19.90;99.90;;;;;;5006466;28;20025;-72
2023/10/08 11:37:35;;;;;;;12.52;6.57;;;20.00;99.90;;;;;;5009858;28;20088;-71
2023/10/08 11:40:17;;;;;;;10.48;5.97;;;19.90;99.90;;;;;;5001990;28;20499;-72
2023/10/08 11:42:43;;;;;;;12.20;5.82;;;20.00;99.90;;;;;;5006084;28;20476;-72
2023/10/08 11:45:24;;;;;;;14.15;6.38;;;20.00;99.90;;;;;;5005559;28;20057;-72
2023/10/08 11:47:55;;;;;;;12.57;5.90;;;20.00;99.90;;;;;;5006852;28;20061;-71
2023/10/08 11:50:31;;;;;;;10.77;5.93;;;20.10;99.90;;;;;;5009151;28;20109;-72
2023/10/08 11:53:05;;;;;;;13.82;5.85;;;20.10;99.90;;;;;;5009161;28;20096;-72
2023/10/08 11:55:35;;;;;;;11.27;6.30;;;20.10;99.90;;;;;;5009533;28;20026;-72
2023/10/08 11:58:17;;;;;;;12.25;6.60;;;20.10;99.90;;;;;;5010483;28;20676;-71
2023/10/08 12:00:44;;;;;;;11.50;5.93;;;20.20;99.90;;;;;;5009652;28;20030;-71
2023/10/08 12:03:12;;;;;;;11.13;5.93;;;20.20;99.90;;;;;;5011285;28;20022;-72
2023/10/08 12:05:47;;;;;;;10.93;5.40;;;20.20;99.90;;;;;;5005608;28;20099;-71
2023/10/08 12:08:20;;;;;;;12.30;6.00;;;20.20;99.90;;;;;;5007568;28;20088;-72
2023/10/08 12:10:47;;;;;;;12.10;6.57;;;20.20;99.90;;;;;;5009006;28;20045;-71
2023/10/08 12:13:16;;;;;;;13.35;6.55;;;20.30;99.90;;;;;;5009135;28;20030;-73
2023/10/08 12:15:44;;;;;;;13.57;6.43;;;20.30;99.90;;;;;;5010222;28;20036;-72
2023/10/08 12:18:15;;;;;;;9.65;5.80;;;20.30;99.90;;;;;;5009910;28;20530;-71
2023/10/08 12:20:46;;;;;;;14.77;7.45;;;20.30;99.90;;;;;;5004998;28;20026;-72
2023/10/08 12:23:19;;;;;;;8.90;5.88;;;20.40;99.90;;;;;;5010423;28;20502;-71
2023/10/08 12:25:51;;;;;;;8.65;6.05;;;20.30;99.90;;;;;;5007740;28;20069;-72
2023/10/08 12:28:18;;;;;;;11.98;5.93;;;20.30;99.90;;;;;;5010444;28;21697;-71
2023/10/08 12:30:45;;;;;;;12.13;6.13;;;20.40;99.90;;;;;;5011182;28;20026;-71
2023/10/08 12:33:12;;;;;;;11.63;6.80;;;20.30;99.90;;;;;;5010186;28;20029;-72
2023/10/08 12:35:41;;;;;;;10.65;5.78;;;20.30;99.90;;;;;;5010577;28;20048;-72
2023/10/08 12:38:08;;;;;;;8.43;5.57;;;20.40;99.90;;;;;;5010306;28;20549;-71
2023/10/08 12:40:53;;;;;;;10.25;5.90;;;20.40;99.90;;;;;;5009644;28;20022;-71
2023/10/08 12:43:26;;;;;;;12.48;5.38;;;20.40;99.90;;;;;;5001778;28;20033;-72
2023/10/08 12:45:52;;;;;;;7.63;5.32;;;20.40;99.90;;;;;;5008908;28;20033;-71
2023/10/08 12:48:24;;;;;;;11.82;5.65;;;20.40;99.90;;;;;;5008339;28;20044;-72
2023/10/08 12:50:53;;;;;;;11.43;5.95;;;20.40;99.90;;;;;;5011023;28;20518;-72
2023/10/08 12:53:36;;;;;;;11.85;5.70;;;20.50;99.90;;;;;;5012130;28;20014;-72
2023/10/08 12:56:05;;;;;;;11.77;6.20;;;20.50;99.90;;;;;;5015867;28;20030;-71
2023/10/08 12:58:39;;;;;;;10.45;5.60;;;20.50;99.90;;;;;;5015620;28;20025;-72
2023/10/08 13:01:07;;;;;;;9.32;5.30;;;20.50;99.90;;;;;;5014617;28;20426;-72
2023/10/08 13:03:33;;;;;;;11.55;5.45;;;20.50;99.90;;;;;;5016338;28;20022;-71
2023/10/08 13:06:05;;;;;;;11.10;5.57;;;20.60;99.90;;;;;;5015867;28;20084;-72
2023/10/08 13:08:31;;;;;;;9.15;5.30;;;20.60;99.90;;;;;;5015642;28;20045;-71
2023/10/08 13:11:01;;;;;;;11.20;5.25;;;20.60;99.90;;;;;;5014434;28;20545;-71
2023/10/08 13:13:44;;;;;;;9.30;5.50;;;20.60;99.90;;;;;;5014742;28;20030;-72
2023/10/08 13:16:10;;;;;;;8.68;5.00;;;20.70;99.90;;;;;;5014969;28;20030;-72
2023/10/08 13:18:42;;;;;;;7.07;5.03;;;20.70;99.90;;;;;;5013482;28;20117;-71
2023/10/08 13:21:09;;;;;;;;;;;20.70;99.90;;;;;;5014418;28;20061;-72
2023/10/08 13:23:35;;;;;;;7.85;5.32;;;20.70;99.90;;;;;;4998440;28;19964;-71
2023/10/08 13:26:04;;;;;;;9.40;5.20;;;20.60;99.90;;;;;;5013667;28;20050;-72
2023/10/08 13:28:33;;;;;;;8.95;5.30;;;20.60;99.90;;;;;;5012983;28;20030;-72
2023/10/08 13:31:00;;;;;;;12.95;5.60;;;20.70;99.90;;;;;;5012183;28;20052;-72
2023/10/08 13:33:26;;;;;;;10.75;5.32;;;20.70;99.90;;;;;;5013417;28;20022;-71
2023/10/08 13:35:52;;;;;;;10.88;5.18;;;20.70;99.90;;;;;;5013569;28;20080;-71
2023/10/08 13:38:23;;;;;;;9.20;5.30;;;20.70;99.90;;;;;;5011113;28;20418;-71
2023/10/08 13:41:06;;;;;;;10.10;5.10;;;20.70;99.90;;;;;;5015716;28;20025;-72
2023/10/08 13:43:35;;;;;;;9.88;5.03;;;20.80;99.90;;;;;;5002738;28;20101;-71
2023/10/08 13:46:07;;;;;;;8.93;5.50;;;20.80;99.90;;;;;;5013108;28;20045;-71
2023/10/08 13:48:35;;;;;;;9.35;5.25;;;20.80;99.90;;;;;;5012589;28;20026;-72
2023/10/08 13:51:04;;;;;;;8.57;5.03;;;20.90;99.90;;;;;;5011730;28;20030;-72